createdAt,value
2019-01-12T00:01:19.007Z,5.06
2019-01-12T00:06:24.513Z,5.19
2019-01-12T00:11:29.987Z,5.22
2019-01-12T00:16:35.014Z,5.14
2019-01-12T00:21:40.220Z,5.09
2019-01-12T00:26:45.262Z,5.04
2019-01-12T00:31:50.343Z,4.96
2019-01-12T00:36:55.433Z,5.00
2019-01-12T00:42:00.402Z,5.08
2019-01-12T00:47:05.472Z,5.07
2019-01-12T00:52:10.534Z,5.02
2019-01-12T00:57:15.516Z,5.08
2019-01-12T01:02:20.550Z,4.98
2019-01-12T01:07:25.648Z,5.01
2019-01-12T01:12:30.702Z,5.07
2019-01-12T01:17:36.092Z,5.01
2019-01-12T01:22:41.143Z,5.06
2019-01-12T01:27:46.606Z,5.07
2019-01-12T01:32:51.665Z,5.02
2019-01-12T01:37:56.728Z,5.03
2019-01-12T01:43:01.726Z,4.94
2019-01-12T01:48:06.704Z,4.91
2019-01-12T01:53:11.797Z,4.98
2019-01-12T01:58:19.028Z,5.04
2019-01-12T02:03:28.087Z,5.12
2019-01-12T02:08:33.504Z,5.19
2019-01-12T02:13:40.846Z,5.12
2019-01-12T02:18:47.014Z,5.22
2019-01-12T02:23:53.572Z,5.21
2019-01-12T02:28:58.860Z,5.12
2019-01-12T02:34:05.802Z,5.03
2019-01-12T02:39:10.900Z,5.15
2019-01-12T02:44:15.944Z,5.16
2019-01-12T02:49:20.959Z,5.06
2019-01-12T02:54:26.178Z,4.99
2019-01-12T02:59:32.552Z,5.04
2019-01-12T03:04:37.647Z,4.97
2019-01-12T03:09:42.664Z,4.97
2019-01-12T03:14:47.827Z,4.98
2019-01-12T03:19:53.499Z,4.94
2019-01-12T03:25:01.511Z,5.03
2019-01-12T03:30:09.710Z,5.10
2019-01-12T03:35:15.691Z,5.16
2019-01-12T03:40:23.973Z,5.18
2019-01-12T03:45:29.144Z,5.18
2019-01-12T03:50:34.283Z,5.33
2019-01-12T03:55:39.303Z,5.23
2019-01-12T04:00:44.345Z,5.24
2019-01-12T04:05:49.361Z,5.24
2019-01-12T04:10:54.419Z,5.19
2019-01-12T04:15:59.620Z,5.13
2019-01-12T04:21:05.008Z,5.20
2019-01-12T04:26:10.076Z,5.18
2019-01-12T04:31:15.595Z,5.24
2019-01-12T04:36:22.744Z,5.18
2019-01-12T04:41:30.624Z,5.18
2019-01-12T04:46:38.779Z,5.21
2019-01-12T04:51:44.094Z,5.27
2019-01-12T04:56:49.055Z,5.28
2019-01-12T05:01:54.399Z,5.29
2019-01-12T05:06:59.397Z,5.24
2019-01-12T05:12:04.468Z,5.31
2019-01-12T05:17:09.470Z,5.35
2019-01-12T05:22:14.784Z,5.48
2019-01-12T05:27:19.832Z,5.50
2019-01-12T05:32:24.931Z,5.49
2019-01-12T05:37:29.916Z,5.47
2019-01-12T05:42:35.387Z,5.51
2019-01-12T05:47:40.446Z,5.46
2019-01-12T05:52:48.157Z,5.48
2019-01-12T05:57:53.738Z,5.49
2019-01-12T06:02:59.099Z,5.45
2019-01-12T06:08:04.281Z,5.42
2019-01-12T06:13:09.339Z,5.37
2019-01-12T06:18:14.695Z,5.42
2019-01-12T06:23:19.691Z,5.37
2019-01-12T06:28:24.982Z,5.39
2019-01-12T06:33:29.955Z,5.42
2019-01-12T06:38:34.943Z,5.43
2019-01-12T06:43:39.959Z,5.39
2019-01-12T06:48:45.001Z,5.42
2019-01-12T06:53:50.023Z,5.41
2019-01-12T06:58:55.041Z,5.50
2019-01-12T07:04:00.190Z,5.55
2019-01-12T07:09:08.497Z,5.59
2019-01-12T07:14:13.523Z,5.53
2019-01-12T07:19:18.575Z,5.63
2019-01-12T07:24:23.673Z,5.62
2019-01-12T07:29:29.415Z,5.65
2019-01-12T07:34:34.439Z,5.68
2019-01-12T07:39:39.579Z,5.64
2019-01-12T07:44:44.657Z,5.55
2019-01-12T07:49:50.059Z,5.60
2019-01-12T07:54:55.186Z,5.58
2019-01-12T08:00:02.061Z,5.51
2019-01-12T08:05:08.629Z,5.48
2019-01-12T08:10:16.875Z,5.56
2019-01-12T08:15:21.923Z,5.54
2019-01-12T08:20:27.022Z,5.48
2019-01-12T08:25:32.117Z,5.52
2019-01-12T08:30:37.183Z,5.58
2019-01-12T08:35:43.267Z,5.66
2019-01-12T08:40:50.387Z,5.68
2019-01-12T08:45:55.319Z,5.71
2019-01-12T08:51:00.342Z,5.66
2019-01-12T08:56:05.651Z,5.70
2019-01-12T09:01:11.809Z,5.68
2019-01-12T09:06:16.912Z,5.79
2019-01-12T09:11:21.995Z,5.82
2019-01-12T09:16:27.022Z,5.77
2019-01-12T09:21:32.070Z,5.73
2019-01-12T09:26:37.201Z,5.68
2019-01-12T09:31:42.313Z,5.63
2019-01-12T09:36:47.691Z,5.62
2019-01-12T09:41:53.525Z,5.63
2019-01-12T09:46:58.605Z,5.76
2019-01-12T09:52:03.993Z,6.09
2019-01-12T09:57:09.001Z,6.38
2019-01-12T10:02:14.027Z,6.52
2019-01-12T10:07:19.103Z,6.58
2019-01-12T10:12:24.278Z,6.59
2019-01-12T10:17:29.333Z,6.76
2019-01-12T10:22:34.447Z,6.76
2019-01-12T10:27:39.522Z,6.67
2019-01-12T10:32:45.155Z,6.60
2019-01-12T10:37:53.896Z,6.71
2019-01-12T10:42:59.167Z,6.87
2019-01-12T10:48:04.299Z,6.76
2019-01-12T10:53:09.903Z,6.73
2019-01-12T10:58:15.188Z,6.61
2019-01-12T11:03:20.381Z,6.69
2019-01-12T11:08:25.663Z,6.69
2019-01-12T11:13:31.345Z,6.73
2019-01-12T11:18:36.575Z,6.71
2019-01-12T11:23:41.887Z,6.51
2019-01-12T11:28:46.977Z,6.50
2019-01-12T11:33:52.032Z,6.41
2019-01-12T11:38:57.256Z,6.38
2019-01-12T11:44:02.465Z,6.36
2019-01-12T11:49:07.610Z,6.36
2019-01-12T11:54:12.805Z,6.50
2019-01-12T11:59:17.912Z,6.77
2019-01-12T12:04:24.101Z,6.69
2019-01-12T12:09:29.233Z,6.58
2019-01-12T12:14:34.625Z,6.54
2019-01-12T12:19:41.329Z,6.49
2019-01-12T12:24:51.015Z,6.53
2019-01-12T12:29:56.727Z,6.59
2019-01-12T12:35:02.534Z,6.53
2019-01-12T12:40:10.924Z,6.52
2019-01-12T12:45:19.868Z,6.53
2019-01-12T12:50:26.816Z,6.60
2019-01-12T12:55:32.007Z,6.54
2019-01-12T13:00:37.504Z,6.48
2019-01-12T13:05:42.841Z,6.43
2019-01-12T13:10:47.921Z,6.46
2019-01-12T13:15:52.937Z,6.36
2019-01-12T13:20:57.915Z,6.39
2019-01-12T13:26:03.237Z,6.31
2019-01-12T13:31:08.478Z,6.35
2019-01-12T13:36:13.746Z,6.32
2019-01-12T13:41:18.971Z,6.32
2019-01-12T13:46:24.657Z,6.28
2019-01-12T13:51:33.425Z,6.25
2019-01-12T13:56:39.075Z,6.22
2019-01-12T14:01:44.851Z,6.20
2019-01-12T14:06:50.501Z,6.22
2019-01-12T14:11:58.493Z,6.16
2019-01-12T14:17:06.786Z,6.17
2019-01-12T14:22:12.941Z,6.03
2019-01-12T14:27:18.881Z,5.94
2019-01-12T14:32:24.330Z,5.84
2019-01-12T14:37:30.787Z,5.77
2019-01-12T14:42:37.262Z,5.75
2019-01-12T14:47:46.006Z,5.71
2019-01-12T14:52:53.428Z,5.72
2019-01-12T14:58:08.709Z,5.72
2019-01-12T15:03:13.919Z,5.67
2019-01-12T15:08:27.965Z,5.58
2019-01-12T15:13:34.468Z,5.59
2019-01-12T15:18:40.940Z,5.55
2019-01-12T15:23:49.344Z,5.55
2019-01-12T15:29:00.907Z,5.48
2019-01-12T15:34:06.110Z,5.48
2019-01-12T15:39:16.608Z,5.50
2019-01-12T15:44:25.799Z,5.48
2019-01-12T15:49:38.347Z,5.47
2019-01-12T15:54:47.459Z,5.52
2019-01-12T15:59:57.940Z,5.49
2019-01-12T16:05:07.663Z,5.47
2019-01-12T16:10:49.201Z,5.48
2019-01-12T16:16:01.344Z,5.51
2019-01-12T16:21:12.984Z,5.49
2019-01-12T16:26:19.435Z,5.53
2019-01-12T16:31:30.624Z,5.52
2019-01-12T16:36:39.741Z,5.51
2019-01-12T16:41:47.118Z,5.56
2019-01-12T16:46:53.268Z,5.56
2019-01-12T16:52:02.785Z,5.55
2019-01-12T16:57:07.895Z,5.55
2019-01-12T17:02:14.801Z,5.62
2019-01-12T17:07:28.905Z,5.74
2019-01-12T17:12:44.307Z,5.70
2019-01-12T17:18:04.251Z,5.69
2019-01-12T17:23:15.787Z,5.68
2019-01-12T17:28:24.089Z,5.66
2019-01-12T17:33:33.716Z,5.69
2019-01-12T17:38:39.967Z,5.63
2019-01-12T17:43:45.572Z,5.64
2019-01-12T17:48:51.315Z,5.67
2019-01-12T17:53:58.133Z,5.69
2019-01-12T17:59:04.137Z,5.67
2019-01-12T18:04:13.875Z,5.72
2019-01-12T18:09:34.260Z,5.67
2019-01-12T18:14:40.914Z,5.68
2019-01-12T18:19:46.381Z,5.71
2019-01-12T18:24:51.985Z,5.73
2019-01-12T18:30:07.965Z,5.67
2019-01-12T18:35:13.371Z,5.74
2019-01-12T18:40:19.874Z,5.80
2019-01-12T18:45:25.423Z,5.79
2019-01-12T18:50:31.738Z,5.78
2019-01-12T18:55:38.441Z,5.83
2019-01-12T19:00:44.002Z,5.88
2019-01-12T19:06:26.330Z,5.88
2019-01-12T19:18:15.637Z,5.85
2019-01-12T19:23:35.978Z,5.84
2019-01-12T19:28:56.053Z,5.90
2019-01-12T19:34:10.624Z,5.85
2019-01-12T19:39:22.529Z,5.78
2019-01-12T19:44:29.724Z,5.75
2019-01-12T19:49:35.620Z,5.80
2019-01-12T19:54:40.938Z,5.83
2019-01-12T19:59:46.197Z,5.77
2019-01-12T20:04:51.565Z,5.78
2019-01-12T20:09:59.263Z,5.81
2019-01-12T20:15:10.367Z,5.80
2019-01-12T20:20:21.116Z,5.75
2019-01-12T20:25:31.938Z,5.82
2019-01-12T20:31:17.730Z,5.79
2019-01-12T20:37:13.570Z,5.70
2019-01-12T20:43:03.277Z,5.66
2019-01-12T20:48:38.732Z,5.63
2019-01-12T20:54:16.344Z,5.63
2019-01-12T21:00:02.278Z,5.70
2019-01-12T21:05:58.570Z,5.71
2019-01-12T21:11:51.156Z,5.64
2019-01-12T21:17:10.483Z,5.76
2019-01-12T21:22:20.417Z,5.72
2019-01-12T21:27:40.204Z,5.70
2019-01-12T21:32:50.724Z,5.65
2019-01-12T21:38:08.340Z,5.68
2019-01-12T21:43:15.520Z,5.69
2019-01-12T21:48:22.062Z,5.74
2019-01-12T21:53:27.465Z,5.75
2019-01-12T21:58:34.648Z,5.72
2019-01-12T22:03:40.070Z,5.82
2019-01-12T22:08:51.251Z,5.80
2019-01-12T22:13:57.029Z,5.83
2019-01-12T22:19:02.559Z,5.79
2019-01-12T22:24:07.944Z,5.79
2019-01-12T22:29:16.058Z,5.76
2019-01-12T22:34:24.742Z,5.73
2019-01-12T22:39:38.388Z,5.80
2019-01-12T22:44:44.651Z,5.81
2019-01-12T22:49:49.886Z,5.82
2019-01-12T22:54:57.937Z,5.80
2019-01-12T23:00:07.384Z,5.77
2019-01-12T23:05:14.016Z,5.79
2019-01-12T23:10:20.048Z,5.77
2019-01-12T23:15:26.455Z,5.86
2019-01-12T23:20:33.988Z,5.88
2019-01-12T23:25:41.005Z,5.93
2019-01-12T23:30:46.164Z,5.99
2019-01-12T23:35:53.742Z,6.04
2019-01-12T23:40:58.970Z,6.16
2019-01-12T23:46:06.940Z,6.25
2019-01-12T23:51:13.492Z,6.16
2019-01-12T23:56:28.868Z,6.13
